sensor_id;sensor_type;location;lat;lon;timestamp;temperature;humidity
6863;DHT22;3470;48.738;9.616;2022-08-19T00:00:09;19.70;99.90
6863;DHT22;3470;48.738;9.616;2022-08-19T00:02:35;19.70;99.90
6863;DHT22;3470;48.738;9.616;2022-08-19T00:05:02;19.70;99.90
6863;DHT22;3470;48.738;9.616;2022-08-19T00:07:28;19.60;99.90
6863;DHT22;3470;48.738;9.616;2022-08-19T00:09:53;19.60;99.90
6863;DHT22;3470;48.738;9.616;2022-08-19T00:12:19;19.60;99.90
6863;DHT22;3470;48.738;9.616;2022-08-19T00:14:45;19.50;99.90
6863;DHT22;3470;48.738;9.616;2022-08-19T00:17:11;19.50;99.90
6863;DHT22;3470;48.738;9.616;2022-08-19T00:19:38;19.40;99.90
6863;DHT22;3470;48.738;9.616;2022-08-19T00:22:04;19.40;99.90
6863;DHT22;3470;48.738;9.616;2022-08-19T00:24:31;19.40;99.90
6863;DHT22;3470;48.738;9.616;2022-08-19T00:26:57;19.30;99.90
6863;DHT22;3470;48.738;9.616;2022-08-19T00:29:24;19.30;99.90
6863;DHT22;3470;48.738;9.616;2022-08-19T00:31:51;19.30;99.90
6863;DHT22;3470;48.738;9.616;2022-08-19T00:34:22;19.20;99.90
6863;DHT22;3470;48.738;9.616;2022-08-19T00:36:49;19.30;99.90
6863;DHT22;3470;48.738;9.616;2022-08-19T00:39:15;19.30;99.90
6863;DHT22;3470;48.738;9.616;2022-08-19T00:41:42;19.20;99.90
6863;DHT22;3470;48.738;9.616;2022-08-19T00:44:14;19.20;99.90
6863;DHT22;3470;48.738;9.616;2022-08-19T00:46:43;19.20;99.90
6863;DHT22;3470;48.738;9.616;2022-08-19T00:49:13;19.20;99.90
6863;DHT22;3470;48.738;9.616;2022-08-19T00:51:41;19.20;99.90
6863;DHT22;3470;48.738;9.616;2022-08-19T00:54:08;19.20;99.90
6863;DHT22;3470;48.738;9.616;2022-08-19T00:56:34;19.20;99.90
6863;DHT22;3470;48.738;9.616;2022-08-19T00:59:02;19.20;99.90
6863;DHT22;3470;48.738;9.616;2022-08-19T01:01:28;19.20;99.90
6863;DHT22;3470;48.738;9.616;2022-08-19T01:03:54;19.10;99.90
6863;DHT22;3470;48.738;9.616;2022-08-19T01:06:20;19.10;99.90
6863;DHT22;3470;48.738;9.616;2022-08-19T01:08:46;19.10;99.90
6863;DHT22;3470;48.738;9.616;2022-08-19T01:11:12;19.00;99.90
6863;DHT22;3470;48.738;9.616;2022-08-19T01:13:38;19.00;99.90
6863;DHT22;3470;48.738;9.616;2022-08-19T01:16:07;19.00;99.90
6863;DHT22;3470;48.738;9.616;2022-08-19T01:18:38;19.00;99.90
6863;DHT22;3470;48.738;9.616;2022-08-19T01:21:09;19.00;99.90
6863;DHT22;3470;48.738;9.616;2022-08-19T01:23:35;19.00;99.90
6863;DHT22;3470;48.738;9.616;2022-08-19T01:26:15;19.00;99.90
6863;DHT22;3470;48.738;9.616;2022-08-19T01:28:43;18.90;99.90
6863;DHT22;3470;48.738;9.616;2022-08-19T01:31:13;19.00;99.90
6863;DHT22;3470;48.738;9.616;2022-08-19T01:33:38;19.00;99.90
6863;DHT22;3470;48.738;9.616;2022-08-19T01:36:07;19.00;99.90
6863;DHT22;3470;48.738;9.616;2022-08-19T01:38:36;19.00;99.90
6863;DHT22;3470;48.738;9.616;2022-08-19T01:41:01;19.00;99.90
6863;DHT22;3470;48.738;9.616;2022-08-19T01:43:27;19.00;99.90
6863;DHT22;3470;48.738;9.616;2022-08-19T01:45:52;18.90;99.90
6863;DHT22;3470;48.738;9.616;2022-08-19T01:48:19;18.80;99.90
6863;DHT22;3470;48.738;9.616;2022-08-19T01:50:45;18.70;99.90
6863;DHT22;3470;48.738;9.616;2022-08-19T01:53:11;18.70;99.90
6863;DHT22;3470;48.738;9.616;2022-08-19T01:55:39;18.60;99.90
6863;DHT22;3470;48.738;9.616;2022-08-19T01:58:05;18.50;99.90
6863;DHT22;3470;48.738;9.616;2022-08-19T02:00:33;18.40;99.90
6863;DHT22;3470;48.738;9.616;2022-08-19T02:02:59;18.30;99.90
6863;DHT22;3470;48.738;9.616;2022-08-19T02:05:26;18.30;99.90
6863;DHT22;3470;48.738;9.616;2022-08-19T02:07:55;18.20;99.90
6863;DHT22;3470;48.738;9.616;2022-08-19T02:10:21;18.20;99.90
6863;DHT22;3470;48.738;9.616;2022-08-19T02:12:48;18.10;99.90
6863;DHT22;3470;48.738;9.616;2022-08-19T02:15:15;18.10;99.90
6863;DHT22;3470;48.738;9.616;2022-08-19T02:17:41;18.00;99.90
6863;DHT22;3470;48.738;9.616;2022-08-19T02:20:08;18.10;99.90
6863;DHT22;3470;48.738;9.616;2022-08-19T02:22:34;18.00;99.90
6863;DHT22;3470;48.738;9.616;2022-08-19T02:25:01;18.00;99.90
6863;DHT22;3470;48.738;9.616;2022-08-19T02:27:27;17.90;99.90
6863;DHT22;3470;48.738;9.616;2022-08-19T02:32:20;17.90;99.90
6863;DHT22;3470;48.738;9.616;2022-08-19T02:34:47;17.90;99.90
6863;DHT22;3470;48.738;9.616;2022-08-19T02:37:13;17.90;99.90
6863;DHT22;3470;48.738;9.616;2022-08-19T02:39:57;17.90;99.90
6863;DHT22;3470;48.738;9.616;2022-08-19T02:42:23;17.90;99.90
6863;DHT22;3470;48.738;9.616;2022-08-19T02:44:49;17.90;99.90
6863;DHT22;3470;48.738;9.616;2022-08-19T02:47:15;17.90;99.90
6863;DHT22;3470;48.738;9.616;2022-08-19T02:49:41;17.80;99.90
6863;DHT22;3470;48.738;9.616;2022-08-19T02:52:07;17.80;99.90
6863;DHT22;3470;48.738;9.616;2022-08-19T02:54:33;17.80;99.90
6863;DHT22;3470;48.738;9.616;2022-08-19T02:56:58;17.80;99.90
6863;DHT22;3470;48.738;9.616;2022-08-19T02:59:24;17.80;99.90
6863;DHT22;3470;48.738;9.616;2022-08-19T03:01:52;17.70;99.90
6863;DHT22;3470;48.738;9.616;2022-08-19T03:04:18;17.70;99.90
6863;DHT22;3470;48.738;9.616;2022-08-19T03:06:46;17.70;99.90
6863;DHT22;3470;48.738;9.616;2022-08-19T03:09:12;17.70;99.90
6863;DHT22;3470;48.738;9.616;2022-08-19T03:11:39;17.70;99.90
6863;DHT22;3470;48.738;9.616;2022-08-19T03:14:06;17.70;99.90
6863;DHT22;3470;48.738;9.616;2022-08-19T03:16:33;17.70;99.90
6863;DHT22;3470;48.738;9.616;2022-08-19T03:19:00;17.70;99.90
6863;DHT22;3470;48.738;9.616;2022-08-19T03:21:28;17.70;99.90
6863;DHT22;3470;48.738;9.616;2022-08-19T03:23:54;17.60;99.90
6863;DHT22;3470;48.738;9.616;2022-08-19T03:26:20;17.60;99.90
6863;DHT22;3470;48.738;9.616;2022-08-19T03:28:46;17.60;99.90
6863;DHT22;3470;48.738;9.616;2022-08-19T03:31:19;17.70;99.90
6863;DHT22;3470;48.738;9.616;2022-08-19T03:33:46;17.70;99.90
6863;DHT22;3470;48.738;9.616;2022-08-19T03:36:16;17.70;99.90
6863;DHT22;3470;48.738;9.616;2022-08-19T03:38:48;17.70;99.90
6863;DHT22;3470;48.738;9.616;2022-08-19T03:41:17;17.70;99.90
6863;DHT22;3470;48.738;9.616;2022-08-19T03:43:43;17.70;99.90
6863;DHT22;3470;48.738;9.616;2022-08-19T03:46:14;17.70;99.90
6863;DHT22;3470;48.738;9.616;2022-08-19T03:48:41;17.60;99.90
6863;DHT22;3470;48.738;9.616;2022-08-19T03:51:14;17.60;99.90
6863;DHT22;3470;48.738;9.616;2022-08-19T03:53:40;17.60;99.90
6863;DHT22;3470;48.738;9.616;2022-08-19T03:56:08;17.60;99.90
6863;DHT22;3470;48.738;9.616;2022-08-19T03:58:34;17.60;99.90
6863;DHT22;3470;48.738;9.616;2022-08-19T04:01:00;17.60;99.90
6863;DHT22;3470;48.738;9.616;2022-08-19T04:03:26;17.60;99.90
6863;DHT22;3470;48.738;9.616;2022-08-19T04:05:52;17.60;99.90
6863;DHT22;3470;48.738;9.616;2022-08-19T04:08:19;17.50;99.90
6863;DHT22;3470;48.738;9.616;2022-08-19T04:10:48;17.50;99.90
6863;DHT22;3470;48.738;9.616;2022-08-19T04:13:17;17.50;99.90
6863;DHT22;3470;48.738;9.616;2022-08-19T04:15:45;17.50;99.90
6863;DHT22;3470;48.738;9.616;2022-08-19T04:18:12;17.60;99.90
6863;DHT22;3470;48.738;9.616;2022-08-19T04:20:44;17.60;99.90
6863;DHT22;3470;48.738;9.616;2022-08-19T04:23:12;17.70;99.90
6863;DHT22;3470;48.738;9.616;2022-08-19T04:25:39;17.60;99.90
6863;DHT22;3470;48.738;9.616;2022-08-19T04:28:06;17.70;99.90
6863;DHT22;3470;48.738;9.616;2022-08-19T04:30:38;17.70;99.90
6863;DHT22;3470;48.738;9.616;2022-08-19T04:33:04;17.70;99.90
6863;DHT22;3470;48.738;9.616;2022-08-19T04:35:38;17.70;99.90
6863;DHT22;3470;48.738;9.616;2022-08-19T04:38:04;17.70;99.90
6863;DHT22;3470;48.738;9.616;2022-08-19T04:40:30;17.70;99.90
6863;DHT22;3470;48.738;9.616;2022-08-19T04:43:14;17.60;99.90
6863;DHT22;3470;48.738;9.616;2022-08-19T04:45:44;17.70;99.90
6863;DHT22;3470;48.738;9.616;2022-08-19T04:48:10;17.70;99.90
6863;DHT22;3470;48.738;9.616;2022-08-19T04:50:39;17.80;99.90
6863;DHT22;3470;48.738;9.616;2022-08-19T04:53:05;17.80;99.90
6863;DHT22;3470;48.738;9.616;2022-08-19T04:55:31;17.80;99.90
6863;DHT22;3470;48.738;9.616;2022-08-19T04:57:57;17.90;99.90
6863;DHT22;3470;48.738;9.616;2022-08-19T05:00:22;17.90;99.90
6863;DHT22;3470;48.738;9.616;2022-08-19T05:02:48;17.90;99.90
6863;DHT22;3470;48.738;9.616;2022-08-19T05:05:14;18.00;99.90
6863;DHT22;3470;48.738;9.616;2022-08-19T05:07:40;18.00;99.90
6863;DHT22;3470;48.738;9.616;2022-08-19T05:10:07;18.00;99.90
6863;DHT22;3470;48.738;9.616;2022-08-19T05:12:33;18.00;99.90
6863;DHT22;3470;48.738;9.616;2022-08-19T05:14:59;18.10;99.90
6863;DHT22;3470;48.738;9.616;2022-08-19T05:17:26;18.00;99.90
6863;DHT22;3470;48.738;9.616;2022-08-19T05:19:52;18.00;99.90
6863;DHT22;3470;48.738;9.616;2022-08-19T05:22:36;17.90;99.90
6863;DHT22;3470;48.738;9.616;2022-08-19T05:25:05;17.80;99.90
6863;DHT22;3470;48.738;9.616;2022-08-19T05:27:32;17.80;99.90
6863;DHT22;3470;48.738;9.616;2022-08-19T05:29:58;17.70;99.90
6863;DHT22;3470;48.738;9.616;2022-08-19T05:32:23;17.70;99.90
6863;DHT22;3470;48.738;9.616;2022-08-19T05:34:49;17.70;99.90
6863;DHT22;3470;48.738;9.616;2022-08-19T05:37:15;17.60;99.90
6863;DHT22;3470;48.738;9.616;2022-08-19T05:39:40;17.70;99.90
6863;DHT22;3470;48.738;9.616;2022-08-19T05:42:08;17.70;99.90
6863;DHT22;3470;48.738;9.616;2022-08-19T05:44:38;17.60;99.90
6863;DHT22;3470;48.738;9.616;2022-08-19T05:47:06;17.60;99.90
6863;DHT22;3470;48.738;9.616;2022-08-19T05:49:33;17.60;99.90
6863;DHT22;3470;48.738;9.616;2022-08-19T05:52:02;17.60;99.90
6863;DHT22;3470;48.738;9.616;2022-08-19T05:54:29;17.60;99.90
6863;DHT22;3470;48.738;9.616;2022-08-19T05:56:55;17.60;99.90
6863;DHT22;3470;48.738;9.616;2022-08-19T05:59:21;17.70;99.90
6863;DHT22;3470;48.738;9.616;2022-08-19T06:01:48;17.70;99.90
6863;DHT22;3470;48.738;9.616;2022-08-19T06:04:18;17.70;99.90
6863;DHT22;3470;48.738;9.616;2022-08-19T06:06:46;17.80;99.90
6863;DHT22;3470;48.738;9.616;2022-08-19T06:09:12;17.80;99.90
6863;DHT22;3470;48.738;9.616;2022-08-19T06:11:44;17.90;99.90
6863;DHT22;3470;48.738;9.616;2022-08-19T06:14:17;17.90;99.90
6863;DHT22;3470;48.738;9.616;2022-08-19T06:16:44;18.00;99.90
6863;DHT22;3470;48.738;9.616;2022-08-19T06:19:13;18.10;99.90
6863;DHT22;3470;48.738;9.616;2022-08-19T06:21:41;18.20;99.90
6863;DHT22;3470;48.738;9.616;2022-08-19T06:24:11;18.20;99.90
6863;DHT22;3470;48.738;9.616;2022-08-19T06:26:39;18.30;99.90
6863;DHT22;3470;48.738;9.616;2022-08-19T06:29:07;18.40;99.90
6863;DHT22;3470;48.738;9.616;2022-08-19T06:31:33;18.50;99.90
6863;DHT22;3470;48.738;9.616;2022-08-19T06:34:01;18.50;99.90
6863;DHT22;3470;48.738;9.616;2022-08-19T06:36:38;18.50;99.90
6863;DHT22;3470;48.738;9.616;2022-08-19T06:39:08;18.60;99.90
6863;DHT22;3470;48.738;9.616;2022-08-19T06:41:41;18.60;99.90
6863;DHT22;3470;48.738;9.616;2022-08-19T06:44:06;18.50;99.90
6863;DHT22;3470;48.738;9.616;2022-08-19T06:46:33;18.50;99.90
6863;DHT22;3470;48.738;9.616;2022-08-19T06:48:58;18.50;99.90
6863;DHT22;3470;48.738;9.616;2022-08-19T06:51:25;18.50;99.90
6863;DHT22;3470;48.738;9.616;2022-08-19T06:53:53;18.50;99.90
6863;DHT22;3470;48.738;9.616;2022-08-19T06:56:21;18.40;99.90
6863;DHT22;3470;48.738;9.616;2022-08-19T06:58:48;18.30;99.90
6863;DHT22;3470;48.738;9.616;2022-08-19T07:01:17;18.30;99.90
6863;DHT22;3470;48.738;9.616;2022-08-19T07:03:43;18.20;99.90
6863;DHT22;3470;48.738;9.616;2022-08-19T07:06:11;18.20;99.90
6863;DHT22;3470;48.738;9.616;2022-08-19T07:08:38;18.20;99.90
6863;DHT22;3470;48.738;9.616;2022-08-19T07:11:08;18.20;99.90
6863;DHT22;3470;48.738;9.616;2022-08-19T07:13:35;18.10;99.90
6863;DHT22;3470;48.738;9.616;2022-08-19T07:16:07;18.10;99.90
6863;DHT22;3470;48.738;9.616;2022-08-19T07:18:33;18.10;99.90
6863;DHT22;3470;48.738;9.616;2022-08-19T07:21:07;18.10;99.90
6863;DHT22;3470;48.738;9.616;2022-08-19T07:23:33;18.10;99.90
6863;DHT22;3470;48.738;9.616;2022-08-19T07:26:06;18.10;99.90
6863;DHT22;3470;48.738;9.616;2022-08-19T07:28:32;18.10;99.90
6863;DHT22;3470;48.738;9.616;2022-08-19T07:30:57;18.20;99.90
6863;DHT22;3470;48.738;9.616;2022-08-19T07:33:23;18.20;99.90
6863;DHT22;3470;48.738;9.616;2022-08-19T07:35:49;18.20;99.90
6863;DHT22;3470;48.738;9.616;2022-08-19T07:38:15;18.10;99.90
6863;DHT22;3470;48.738;9.616;2022-08-19T07:40:41;18.10;99.90
6863;DHT22;3470;48.738;9.616;2022-08-19T07:43:08;18.10;99.90
6863;DHT22;3470;48.738;9.616;2022-08-19T07:45:34;18.10;99.90
6863;DHT22;3470;48.738;9.616;2022-08-19T07:48:00;18.10;99.90
6863;DHT22;3470;48.738;9.616;2022-08-19T07:50:26;18.10;99.90
6863;DHT22;3470;48.738;9.616;2022-08-19T07:52:52;18.00;99.90
6863;DHT22;3470;48.738;9.616;2022-08-19T07:55:22;18.00;99.90
6863;DHT22;3470;48.738;9.616;2022-08-19T07:57:47;17.90;99.90
6863;DHT22;3470;48.738;9.616;2022-08-19T08:00:14;17.90;99.90
6863;DHT22;3470;48.738;9.616;2022-08-19T08:02:39;17.90;99.90
6863;DHT22;3470;48.738;9.616;2022-08-19T08:05:08;17.90;99.90
6863;DHT22;3470;48.738;9.616;2022-08-19T08:07:52;17.90;99.90
6863;DHT22;3470;48.738;9.616;2022-08-19T08:10:36;18.00;99.90
6863;DHT22;3470;48.738;9.616;2022-08-19T08:13:03;18.00;99.90
6863;DHT22;3470;48.738;9.616;2022-08-19T08:15:31;18.00;99.90
6863;DHT22;3470;48.738;9.616;2022-08-19T08:17:57;18.00;99.90
6863;DHT22;3470;48.738;9.616;2022-08-19T08:20:23;18.00;99.90
6863;DHT22;3470;48.738;9.616;2022-08-19T08:22:49;18.10;99.90
6863;DHT22;3470;48.738;9.616;2022-08-19T08:25:34;18.10;99.90
6863;DHT22;3470;48.738;9.616;2022-08-19T08:28:01;18.20;99.90
6863;DHT22;3470;48.738;9.616;2022-08-19T08:30:29;18.20;99.90
6863;DHT22;3470;48.738;9.616;2022-08-19T08:32:55;18.20;99.90
6863;DHT22;3470;48.738;9.616;2022-08-19T08:35:23;18.30;99.90
6863;DHT22;3470;48.738;9.616;2022-08-19T08:37:50;18.40;99.90
6863;DHT22;3470;48.738;9.616;2022-08-19T08:43:18;18.50;99.90
6863;DHT22;3470;48.738;9.616;2022-08-19T08:48:46;18.60;99.90
6863;DHT22;3470;48.738;9.616;2022-08-19T08:51:18;18.60;99.90
6863;DHT22;3470;48.738;9.616;2022-08-19T08:53:46;18.80;99.90
6863;DHT22;3470;48.738;9.616;2022-08-19T08:56:13;18.80;99.90
6863;DHT22;3470;48.738;9.616;2022-08-19T08:58:47;18.80;99.90
6863;DHT22;3470;48.738;9.616;2022-08-19T09:01:14;18.90;99.90
6863;DHT22;3470;48.738;9.616;2022-08-19T09:03:41;18.90;99.90
6863;DHT22;3470;48.738;9.616;2022-08-19T09:09:04;19.00;99.90
6863;DHT22;3470;48.738;9.616;2022-08-19T09:11:56;19.00;99.90
6863;DHT22;3470;48.738;9.616;2022-08-19T09:14:46;18.90;99.90
6863;DHT22;3470;48.738;9.616;2022-08-19T09:17:13;18.80;99.90
6863;DHT22;3470;48.738;9.616;2022-08-19T09:19:55;18.80;99.90
6863;DHT22;3470;48.738;9.616;2022-08-19T09:22:21;18.80;99.90
6863;DHT22;3470;48.738;9.616;2022-08-19T09:24:49;18.80;99.90
6863;DHT22;3470;48.738;9.616;2022-08-19T09:27:15;18.80;99.90
6863;DHT22;3470;48.738;9.616;2022-08-19T09:29:41;18.70;99.90
6863;DHT22;3470;48.738;9.616;2022-08-19T09:32:07;18.70;99.90
6863;DHT22;3470;48.738;9.616;2022-08-19T09:34:33;18.70;99.90
6863;DHT22;3470;48.738;9.616;2022-08-19T09:36:58;18.70;99.90
6863;DHT22;3470;48.738;9.616;2022-08-19T09:39:25;18.60;99.90
6863;DHT22;3470;48.738;9.616;2022-08-19T09:41:51;18.60;99.90
6863;DHT22;3470;48.738;9.616;2022-08-19T09:44:18;18.60;99.90
6863;DHT22;3470;48.738;9.616;2022-08-19T09:46:45;18.70;99.90
6863;DHT22;3470;48.738;9.616;2022-08-19T09:49:16;18.70;99.90
6863;DHT22;3470;48.738;9.616;2022-08-19T09:51:42;18.70;99.90
6863;DHT22;3470;48.738;9.616;2022-08-19T09:54:08;18.60;99.90
6863;DHT22;3470;48.738;9.616;2022-08-19T09:56:34;18.60;99.90
6863;DHT22;3470;48.738;9.616;2022-08-19T09:59:01;18.60;99.90
6863;DHT22;3470;48.738;9.616;2022-08-19T10:01:29;18.60;99.90
6863;DHT22;3470;48.738;9.616;2022-08-19T10:03:57;18.60;99.90
6863;DHT22;3470;48.738;9.616;2022-08-19T10:06:25;18.60;99.90
6863;DHT22;3470;48.738;9.616;2022-08-19T10:08:52;18.70;99.90
6863;DHT22;3470;48.738;9.616;2022-08-19T10:11:19;18.70;99.90
6863;DHT22;3470;48.738;9.616;2022-08-19T10:13:45;18.70;99.90
6863;DHT22;3470;48.738;9.616;2022-08-19T10:16:15;18.90;99.90
6863;DHT22;3470;48.738;9.616;2022-08-19T10:18:41;19.00;99.90
6863;DHT22;3470;48.738;9.616;2022-08-19T10:21:15;19.30;99.90
6863;DHT22;3470;48.738;9.616;2022-08-19T10:23:44;19.50;99.90
6863;DHT22;3470;48.738;9.616;2022-08-19T10:26:13;19.50;99.90
6863;DHT22;3470;48.738;9.616;2022-08-19T10:28:38;19.70;99.90
6863;DHT22;3470;48.738;9.616;2022-08-19T10:31:06;19.80;99.90
6863;DHT22;3470;48.738;9.616;2022-08-19T10:33:33;20.00;99.90
6863;DHT22;3470;48.738;9.616;2022-08-19T10:36:00;20.00;99.90
6863;DHT22;3470;48.738;9.616;2022-08-19T10:38:26;19.90;99.90
6863;DHT22;3470;48.738;9.616;2022-08-19T10:40:51;19.90;99.90
6863;DHT22;3470;48.738;9.616;2022-08-19T10:43:18;20.10;99.90
6863;DHT22;3470;48.738;9.616;2022-08-19T10:45:51;20.10;99.90
6863;DHT22;3470;48.738;9.616;2022-08-19T10:48:17;20.10;99.90
6863;DHT22;3470;48.738;9.616;2022-08-19T10:50:43;20.10;99.90
6863;DHT22;3470;48.738;9.616;2022-08-19T10:53:27;20.00;99.90
6863;DHT22;3470;48.738;9.616;2022-08-19T10:55:52;20.10;99.90
6863;DHT22;3470;48.738;9.616;2022-08-19T10:58:36;20.00;99.90
6863;DHT22;3470;48.738;9.616;2022-08-19T11:01:02;19.70;99.90
6863;DHT22;3470;48.738;9.616;2022-08-19T11:03:28;19.60;99.90
6863;DHT22;3470;48.738;9.616;2022-08-19T11:05:59;19.60;99.90
6863;DHT22;3470;48.738;9.616;2022-08-19T11:08:25;19.40;99.90
6863;DHT22;3470;48.738;9.616;2022-08-19T11:10:53;19.40;99.90
6863;DHT22;3470;48.738;9.616;2022-08-19T11:13:33;19.40;99.90
6863;DHT22;3470;48.738;9.616;2022-08-19T11:16:08;19.40;99.90
6863;DHT22;3470;48.738;9.616;2022-08-19T11:18:40;19.30;99.90
6863;DHT22;3470;48.738;9.616;2022-08-19T11:21:20;19.30;99.90
6863;DHT22;3470;48.738;9.616;2022-08-19T11:23:49;19.10;99.90
6863;DHT22;3470;48.738;9.616;2022-08-19T11:26:16;19.00;99.90
6863;DHT22;3470;48.738;9.616;2022-08-19T11:28:42;18.90;99.90
6863;DHT22;3470;48.738;9.616;2022-08-19T11:31:13;18.80;99.90
6863;DHT22;3470;48.738;9.616;2022-08-19T11:33:39;18.80;99.90
6863;DHT22;3470;48.738;9.616;2022-08-19T11:36:05;18.90;99.90
6863;DHT22;3470;48.738;9.616;2022-08-19T11:38:30;18.80;99.90
6863;DHT22;3470;48.738;9.616;2022-08-19T11:41:02;18.80;99.90
6863;DHT22;3470;48.738;9.616;2022-08-19T11:43:28;18.80;99.90
6863;DHT22;3470;48.738;9.616;2022-08-19T11:45:54;18.80;99.90
6863;DHT22;3470;48.738;9.616;2022-08-19T11:48:21;18.80;99.90
6863;DHT22;3470;48.738;9.616;2022-08-19T11:50:51;18.70;99.90
6863;DHT22;3470;48.738;9.616;2022-08-19T11:53:18;18.50;99.90
6863;DHT22;3470;48.738;9.616;2022-08-19T11:55:46;18.50;99.90
6863;DHT22;3470;48.738;9.616;2022-08-19T11:58:13;18.50;99.90
6863;DHT22;3470;48.738;9.616;2022-08-19T12:00:39;18.40;99.90
6863;DHT22;3470;48.738;9.616;2022-08-19T12:03:06;18.30;99.90
6863;DHT22;3470;48.738;9.616;2022-08-19T12:05:32;18.30;99.90
6863;DHT22;3470;48.738;9.616;2022-08-19T12:07:57;18.40;99.90
6863;DHT22;3470;48.738;9.616;2022-08-19T12:10:23;18.40;99.90
6863;DHT22;3470;48.738;9.616;2022-08-19T12:12:49;18.40;99.90
6863;DHT22;3470;48.738;9.616;2022-08-19T12:15:15;18.40;99.90
6863;DHT22;3470;48.738;9.616;2022-08-19T12:17:42;18.50;99.90
6863;DHT22;3470;48.738;9.616;2022-08-19T12:20:09;18.50;99.90
6863;DHT22;3470;48.738;9.616;2022-08-19T12:22:39;18.50;99.90
6863;DHT22;3470;48.738;9.616;2022-08-19T12:25:08;18.50;99.90
6863;DHT22;3470;48.738;9.616;2022-08-19T12:27:34;18.50;99.90
6863;DHT22;3470;48.738;9.616;2022-08-19T12:30:02;18.50;99.90
6863;DHT22;3470;48.738;9.616;2022-08-19T12:32:28;18.40;99.90
6863;DHT22;3470;48.738;9.616;2022-08-19T12:34:54;18.40;99.90
6863;DHT22;3470;48.738;9.616;2022-08-19T12:37:20;18.40;99.90
6863;DHT22;3470;48.738;9.616;2022-08-19T12:39:45;18.30;99.90
6863;DHT22;3470;48.738;9.616;2022-08-19T12:42:12;18.30;99.90
6863;DHT22;3470;48.738;9.616;2022-08-19T12:44:40;18.20;99.90
6863;DHT22;3470;48.738;9.616;2022-08-19T12:47:07;18.10;99.90
6863;DHT22;3470;48.738;9.616;2022-08-19T12:49:33;18.10;99.90
6863;DHT22;3470;48.738;9.616;2022-08-19T12:52:03;18.10;99.90
6863;DHT22;3470;48.738;9.616;2022-08-19T12:54:29;18.10;99.90
6863;DHT22;3470;48.738;9.616;2022-08-19T12:56:57;18.00;99.90
6863;DHT22;3470;48.738;9.616;2022-08-19T12:59:22;18.00;99.90
6863;DHT22;3470;48.738;9.616;2022-08-19T13:01:48;18.00;99.90
6863;DHT22;3470;48.738;9.616;2022-08-19T13:04:14;18.10;99.90
6863;DHT22;3470;48.738;9.616;2022-08-19T13:06:40;18.10;99.90
6863;DHT22;3470;48.738;9.616;2022-08-19T13:09:06;18.20;99.90
6863;DHT22;3470;48.738;9.616;2022-08-19T13:11:32;18.30;99.90
6863;DHT22;3470;48.738;9.616;2022-08-19T13:13:59;18.30;99.90
6863;DHT22;3470;48.738;9.616;2022-08-19T13:16:25;18.30;99.90
6863;DHT22;3470;48.738;9.616;2022-08-19T13:18:54;18.30;99.90
6863;DHT22;3470;48.738;9.616;2022-08-19T13:21:23;18.20;99.90
6863;DHT22;3470;48.738;9.616;2022-08-19T13:23:49;18.20;99.90
6863;DHT22;3470;48.738;9.616;2022-08-19T13:26:16;18.20;99.90
6863;DHT22;3470;48.738;9.616;2022-08-19T13:28:42;18.10;99.90
6863;DHT22;3470;48.738;9.616;2022-08-19T13:31:32;18.10;99.90
6863;DHT22;3470;48.738;9.616;2022-08-19T13:34:19;18.20;99.90
6863;DHT22;3470;48.738;9.616;2022-08-19T13:36:46;18.20;99.90
6863;DHT22;3470;48.738;9.616;2022-08-19T13:39:12;18.20;99.90
6863;DHT22;3470;48.738;9.616;2022-08-19T13:41:43;18.20;99.90
6863;DHT22;3470;48.738;9.616;2022-08-19T13:44:13;18.10;99.90
6863;DHT22;3470;48.738;9.616;2022-08-19T13:46:39;18.10;99.90
6863;DHT22;3470;48.738;9.616;2022-08-19T13:49:05;18.10;99.90
6863;DHT22;3470;48.738;9.616;2022-08-19T13:51:30;18.00;99.90
6863;DHT22;3470;48.738;9.616;2022-08-19T13:53:56;18.00;99.90
6863;DHT22;3470;48.738;9.616;2022-08-19T13:56:21;18.00;99.90
6863;DHT22;3470;48.738;9.616;2022-08-19T13:58:47;18.00;99.90
6863;DHT22;3470;48.738;9.616;2022-08-19T14:01:19;18.10;99.90
6863;DHT22;3470;48.738;9.616;2022-08-19T14:03:44;18.10;99.90
6863;DHT22;3470;48.738;9.616;2022-08-19T14:06:10;18.10;99.90
6863;DHT22;3470;48.738;9.616;2022-08-19T14:08:36;18.10;99.90
6863;DHT22;3470;48.738;9.616;2022-08-19T14:11:04;18.20;99.90
6863;DHT22;3470;48.738;9.616;2022-08-19T14:13:30;18.20;99.90
6863;DHT22;3470;48.738;9.616;2022-08-19T14:15:59;18.20;99.90
6863;DHT22;3470;48.738;9.616;2022-08-19T14:18:24;18.20;99.90
6863;DHT22;3470;48.738;9.616;2022-08-19T14:20:51;18.10;99.90
6863;DHT22;3470;48.738;9.616;2022-08-19T14:23:17;18.10;99.90
6863;DHT22;3470;48.738;9.616;2022-08-19T14:25:43;18.10;99.90
6863;DHT22;3470;48.738;9.616;2022-08-19T14:28:09;18.10;99.90
6863;DHT22;3470;48.738;9.616;2022-08-19T14:30:36;18.10;99.90
6863;DHT22;3470;48.738;9.616;2022-08-19T14:33:03;18.10;99.90
6863;DHT22;3470;48.738;9.616;2022-08-19T14:35:32;18.00;99.90
6863;DHT22;3470;48.738;9.616;2022-08-19T14:38:00;18.00;99.90
6863;DHT22;3470;48.738;9.616;2022-08-19T14:40:28;18.10;99.90
6863;DHT22;3470;48.738;9.616;2022-08-19T14:43:00;18.10;99.90
6863;DHT22;3470;48.738;9.616;2022-08-19T14:45:30;18.10;99.90
6863;DHT22;3470;48.738;9.616;2022-08-19T14:47:56;18.10;99.90
6863;DHT22;3470;48.738;9.616;2022-08-19T14:50:22;18.10;99.90
6863;DHT22;3470;48.738;9.616;2022-08-19T14:52:48;18.10;99.90
6863;DHT22;3470;48.738;9.616;2022-08-19T14:55:15;18.20;99.90
6863;DHT22;3470;48.738;9.616;2022-08-19T14:57:41;18.20;99.90
6863;DHT22;3470;48.738;9.616;2022-08-19T15:00:08;18.20;99.90
6863;DHT22;3470;48.738;9.616;2022-08-19T15:02:38;18.30;99.90
6863;DHT22;3470;48.738;9.616;2022-08-19T15:05:03;18.40;99.90
6863;DHT22;3470;48.738;9.616;2022-08-19T15:07:29;18.40;99.90
6863;DHT22;3470;48.738;9.616;2022-08-19T15:09:55;18.40;99.90
6863;DHT22;3470;48.738;9.616;2022-08-19T15:12:21;18.40;99.90
6863;DHT22;3470;48.738;9.616;2022-08-19T15:14:47;18.40;99.90
6863;DHT22;3470;48.738;9.616;2022-08-19T15:17:16;18.40;99.90
6863;DHT22;3470;48.738;9.616;2022-08-19T15:19:42;18.40;99.90
6863;DHT22;3470;48.738;9.616;2022-08-19T15:22:07;18.40;99.90
6863;DHT22;3470;48.738;9.616;2022-08-19T15:24:33;18.40;99.90
6863;DHT22;3470;48.738;9.616;2022-08-19T15:27:01;18.50;99.90
6863;DHT22;3470;48.738;9.616;2022-08-19T15:29:26;18.50;99.90
6863;DHT22;3470;48.738;9.616;2022-08-19T15:31:53;18.60;99.90
6863;DHT22;3470;48.738;9.616;2022-08-19T15:34:21;18.70;99.90
6863;DHT22;3470;48.738;9.616;2022-08-19T15:36:47;18.70;99.90
6863;DHT22;3470;48.738;9.616;2022-08-19T15:39:12;18.80;99.90
6863;DHT22;3470;48.738;9.616;2022-08-19T15:41:38;18.80;99.90
6863;DHT22;3470;48.738;9.616;2022-08-19T15:44:08;18.80;99.90
6863;DHT22;3470;48.738;9.616;2022-08-19T15:46:36;18.80;99.90
6863;DHT22;3470;48.738;9.616;2022-08-19T15:49:03;18.60;99.90
6863;DHT22;3470;48.738;9.616;2022-08-19T15:51:32;18.60;99.90
6863;DHT22;3470;48.738;9.616;2022-08-19T15:54:01;18.70;99.90
6863;DHT22;3470;48.738;9.616;2022-08-19T15:56:27;18.70;99.90
6863;DHT22;3470;48.738;9.616;2022-08-19T15:59:13;18.80;99.90
6863;DHT22;3470;48.738;9.616;2022-08-19T16:01:57;18.80;99.90
6863;DHT22;3470;48.738;9.616;2022-08-19T16:04:41;18.80;99.90
6863;DHT22;3470;48.738;9.616;2022-08-19T16:07:25;18.80;99.90
6863;DHT22;3470;48.738;9.616;2022-08-19T16:09:51;18.90;99.90
6863;DHT22;3470;48.738;9.616;2022-08-19T16:12:17;18.90;99.90
6863;DHT22;3470;48.738;9.616;2022-08-19T16:14:44;18.90;99.90
6863;DHT22;3470;48.738;9.616;2022-08-19T16:17:09;18.90;99.90